Time;durP1;ratioP1;P1;durP2;ratioP2;P2;SDS_P1;SDS_P2;PMS_P1;PMS_P2;Temp;Humidity;BMP_temperature;BMP_pressure;BME280_temperature;BME280_humidity;BME280_pressure;Samples;Min_cycle;Max_cycle;Signal;HPM_P1;HPM_P2
2022/04/25 00:00:54;;;;;;;;;;;21.00;43.30;;;;;;5147643;27;20042;-58
2022/04/25 00:03:19;;;;;;;;;;;21.20;42.80;;;;;;5123806;27;19931;-56
2022/04/25 00:05:45;;;;;;;;;;;21.00;43.40;;;;;;5140742;27;20086;-56
2022/04/25 00:08:11;;;;;;;;;;;21.30;42.80;;;;;;5144030;27;20017;-54
2022/04/25 00:10:37;;;;;;;;;;;21.10;42.90;;;;;;5141249;27;19960;-47
2022/04/25 00:13:03;;;;;;;;;;;21.20;42.90;;;;;;5146136;27;19927;-58
2022/04/25 00:15:29;;;;;;;;;;;21.30;42.60;;;;;;5141893;27;20022;-56
2022/04/25 00:17:55;;;;;;;;;;;21.00;43.10;;;;;;5142130;27;19923;-49
2022/04/25 00:20:21;;;;;;;;;;;21.10;43.00;;;;;;5147621;27;19931;-58
2022/04/25 00:22:46;;;;;;;;;;;21.20;42.90;;;;;;5142206;27;20298;-52
2022/04/25 00:25:12;;;;;;;;;;;21.10;43.40;;;;;;5138362;27;20231;-57
2022/04/25 00:27:38;;;;;;;;;;;21.20;43.30;;;;;;5145456;27;20272;-48
2022/04/25 00:30:04;;;;;;;;;;;21.10;43.30;;;;;;5141584;27;19970;-49
2022/04/25 00:32:30;;;;;;;;;;;21.20;43.00;;;;;;5147019;27;19927;-53
2022/04/25 00:34:56;;;;;;;;;;;21.10;43.40;;;;;;5142486;27;19958;-58
2022/04/25 00:37:22;;;;;;;;;;;21.10;43.10;;;;;;5142068;27;20339;-55
2022/04/25 00:39:48;;;;;;;;;;;21.10;43.30;;;;;;5147440;27;19927;-54
2022/04/25 00:42:14;;;;;;;;;;;21.20;43.00;;;;;;5122688;27;20366;-59
2022/04/25 00:44:41;;;;;;;;;;;21.20;42.90;;;;;;5137611;27;20021;-49
2022/04/25 00:47:08;;;;;;;;;;;21.10;43.00;;;;;;5146533;27;19923;-59
2022/04/25 00:49:34;;;;;;;;;;;21.30;42.60;;;;;;5141460;27;19987;-50
2022/04/25 00:51:59;;;;;;;;;;;21.00;43.00;;;;;;5122896;27;19928;-55
2022/04/25 00:54:25;;;;;;;;;;;21.20;42.50;;;;;;5145428;27;20374;-58
2022/04/25 00:56:51;;;;;;;;;;;21.20;42.50;;;;;;5141235;27;19979;-57
2022/04/25 00:59:18;;;;;;;;;;;21.20;42.50;;;;;;5146966;27;19946;-57
2022/04/25 01:01:44;;;;;;;;;;;21.20;42.10;;;;;;5138304;27;19922;-48
2022/04/25 01:04:10;;;;;;;;;;;21.00;42.40;;;;;;5139242;27;20271;-54
2022/04/25 01:06:36;;;;;;;;;;;21.20;42.10;;;;;;5146605;27;20340;-58
2022/04/25 01:09:01;;;;;;;;;;;21.10;42.00;;;;;;5141298;27;19930;-57
2022/04/25 01:11:27;;;;;;;;;;;21.20;42.10;;;;;;5122958;27;19927;-53
2022/04/25 01:13:53;;;;;;;;;;;21.30;41.80;;;;;;5146676;27;19923;-58
2022/04/25 01:16:20;;;;;;;;;;;21.00;42.40;;;;;;5141367;27;19931;-58
2022/04/25 01:18:46;;;;;;;;;;;21.30;41.80;;;;;;5146435;27;20021;-52
2022/04/25 01:21:12;;;;;;;;;;;21.10;42.10;;;;;;5136347;27;19931;-57
2022/04/25 01:29:21;;;;;;;;;;;21.30;41.50;;;;;;5103926;27;20068;-58
2022/04/25 01:31:46;;;;;;;;;;;21.00;42.20;;;;;;5144518;27;20394;-56
2022/04/25 01:34:12;;;;;;;;;;;21.30;41.70;;;;;;5149890;27;19929;-52
2022/04/25 01:36:38;;;;;;;;;;;21.00;41.90;;;;;;5144522;27;20294;-56
2022/04/25 01:39:04;;;;;;;;;;;21.20;41.60;;;;;;5140376;27;19923;-55
2022/04/25 01:41:30;;;;;;;;;;;21.10;41.80;;;;;;5148933;27;19931;-49
2022/04/25 01:43:55;;;;;;;;;;;21.20;41.70;;;;;;5144436;27;19975;-50
2022/04/25 01:46:21;;;;;;;;;;;21.10;41.80;;;;;;5144471;27;19927;-57
2022/04/25 01:48:47;;;;;;;;;;;21.30;41.60;;;;;;5149830;27;20027;-52
2022/04/25 01:51:13;;;;;;;;;;;21.20;41.40;;;;;;5144419;27;19966;-51
2022/04/25 01:53:38;;;;;;;;;;;21.00;41.70;;;;;;5149987;27;19927;-58
2022/04/25 01:56:04;;;;;;;;;;;21.30;41.20;;;;;;5142720;27;19923;-57
2022/04/25 01:58:30;;;;;;;;;;;21.20;41.10;;;;;;5140869;27;19934;-54
2022/04/25 02:00:56;;;;;;;;;;;21.00;41.20;;;;;;5149162;27;19927;-48
2022/04/25 02:03:21;;;;;;;;;;;21.10;41.00;;;;;;5144154;27;19950;-59
2022/04/25 02:05:47;;;;;;;;;;;21.30;40.70;;;;;;5144050;27;19931;-47
2022/04/25 02:08:14;;;;;;;;;;;21.10;40.90;;;;;;5149630;27;19931;-55
2022/04/25 02:10:39;;;;;;;;;;;21.20;40.70;;;;;;5144252;27;19923;-55
2022/04/25 02:13:05;;;;;;;;;;;21.10;40.90;;;;;;5149455;27;19930;-57
2022/04/25 02:15:31;;;;;;;;;;;21.20;40.50;;;;;;5139831;27;19931;-57
2022/04/25 02:17:57;;;;;;;;;;;21.10;40.80;;;;;;5142262;27;19962;-58
2022/04/25 02:20:22;;;;;;;;;;;21.20;40.50;;;;;;5149274;27;19927;-55
2022/04/25 02:22:48;;;;;;;;;;;21.20;40.60;;;;;;5143752;27;20424;-57
2022/04/25 02:25:14;;;;;;;;;;;21.30;40.40;;;;;;5143972;27;20472;-58
2022/04/25 02:27:40;;;;;;;;;;;21.00;41.20;;;;;;5149337;27;19930;-57
2022/04/25 02:30:06;;;;;;;;;;;21.20;40.80;;;;;;5143536;27;19923;-49
2022/04/25 02:32:32;;;;;;;;;;;21.20;40.80;;;;;;5147456;27;19923;-56
2022/04/25 02:34:59;;;;;;;;;;;21.20;40.60;;;;;;5139794;27;19958;-57
2022/04/25 02:37:25;;;;;;;;;;;21.00;41.20;;;;;;5139305;27;20425;-57
2022/04/25 02:39:51;;;;;;;;;;;21.20;40.80;;;;;;5149059;27;19927;-55
2022/04/25 02:42:17;;;;;;;;;;;21.10;40.80;;;;;;5143551;27;19934;-54
2022/04/25 02:44:43;;;;;;;;;;;21.20;40.60;;;;;;5143482;27;19927;-49
2022/04/25 02:47:09;;;;;;;;;;;21.20;40.70;;;;;;5148903;27;19923;-56
2022/04/25 02:49:35;;;;;;;;;;;21.20;40.50;;;;;;5143534;27;20388;-49
2022/04/25 02:52:01;;;;;;;;;;;21.10;40.60;;;;;;5141386;27;19923;-56
2022/04/25 02:54:26;;;;;;;;;;;21.20;40.40;;;;;;5146191;27;19930;-54
2022/04/25 02:56:52;;;;;;;;;;;21.10;40.50;;;;;;5143041;27;20328;-54
2022/04/25 02:59:20;;;;;;;;;;;21.20;40.50;;;;;;5148687;27;19934;-55
2022/04/25 03:01:46;;;;;;;;;;;21.20;40.40;;;;;;5123539;27;20035;-53
2022/04/25 03:04:12;;;;;;;;;;;21.20;40.40;;;;;;5143382;27;19927;-57
2022/04/25 03:06:38;;;;;;;;;;;21.10;40.60;;;;;;5148574;27;19926;-54
2022/04/25 03:09:04;;;;;;;;;;;21.20;40.40;;;;;;5142654;27;19927;-53
2022/04/25 03:11:29;;;;;;;;;;;21.10;40.50;;;;;;5138772;27;20274;-54
2022/04/25 03:13:56;;;;;;;;;;;21.20;40.50;;;;;;5148020;27;19930;-52
2022/04/25 03:16:21;;;;;;;;;;;21.00;41.00;;;;;;5142978;27;20293;-55
2022/04/25 03:18:48;;;;;;;;;;;21.10;40.90;;;;;;5148452;27;19945;-52
2022/04/25 03:21:14;;;;;;;;;;;21.10;40.90;;;;;;5122422;27;20022;-54
2022/04/25 03:23:39;;;;;;;;;;;21.20;40.80;;;;;;5142904;27;19927;-55
2022/04/25 03:26:05;;;;;;;;;;;20.90;41.00;;;;;;5148311;27;20463;-49
2022/04/25 03:28:31;;;;;;;;;;;21.20;40.70;;;;;;5139865;27;19949;-54
2022/04/25 03:30:57;;;;;;;;;;;21.00;40.80;;;;;;5122372;27;19927;-54
2022/04/25 03:33:23;;;;;;;;;;;21.10;40.60;;;;;;5148025;27;19934;-53
2022/04/25 03:35:49;;;;;;;;;;;21.00;40.90;;;;;;5142620;27;19924;-58
2022/04/25 03:38:16;;;;;;;;;;;21.30;40.40;;;;;;5145999;27;20045;-56
2022/04/25 03:40:41;;;;;;;;;;;20.90;40.90;;;;;;5142748;27;19923;-57
2022/04/25 03:43:07;;;;;;;;;;;21.30;40.30;;;;;;5142538;27;20316;-54
2022/04/25 03:45:33;;;;;;;;;;;21.00;40.70;;;;;;5148156;27;19927;-56
2022/04/25 03:47:59;;;;;;;;;;;21.30;40.30;;;;;;5119232;27;20194;-51
2022/04/25 03:50:28;;;;;;;;;;;21.00;40.70;;;;;;5141364;27;19927;-56
2022/04/25 03:52:54;;;;;;;;;;;21.20;40.40;;;;;;5147587;27;19974;-49
2022/04/25 03:58:04;;;;;;;;;;;21.20;40.50;;;;;;5142431;27;20177;-58
2022/04/25 04:00:30;;;;;;;;;;;21.00;40.90;;;;;;5147831;27;20392;-54
2022/04/25 04:02:58;;;;;;;;;;;21.20;40.50;;;;;;5142325;27;19927;-55
2022/04/25 04:05:24;;;;;;;;;;;21.10;40.80;;;;;;5144293;27;20378;-52
2022/04/25 04:07:50;;;;;;;;;;;21.10;40.80;;;;;;5140734;27;19939;-56
2022/04/25 04:10:16;;;;;;;;;;;21.20;40.70;;;;;;5141809;27;19940;-51
2022/04/25 04:12:46;;;;;;;;;;;21.00;40.90;;;;;;5147592;27;19949;-54
2022/04/25 04:15:12;;;;;;;;;;;21.20;40.50;;;;;;5141855;27;20150;-56
2022/04/25 04:17:38;;;;;;;;;;;20.90;41.00;;;;;;5141988;27;19989;-47
2022/04/25 04:20:04;;;;;;;;;;;21.20;40.60;;;;;;5147545;27;19923;-57
2022/04/25 04:22:30;;;;;;;;;;;21.00;41.00;;;;;;5141853;27;19923;-52
2022/04/25 04:25:00;;;;;;;;;;;21.20;40.60;;;;;;5138276;27;19923;-51
2022/04/25 04:27:25;;;;;;;;;;;20.90;41.20;;;;;;5146734;27;19927;-48
2022/04/25 04:29:51;;;;;;;;;;;21.20;40.80;;;;;;5141927;27;19934;-57
2022/04/25 04:32:17;;;;;;;;;;;21.00;41.10;;;;;;5147148;27;19975;-51
2022/04/25 04:34:43;;;;;;;;;;;21.20;41.00;;;;;;5141838;27;19923;-54
2022/04/25 04:37:09;;;;;;;;;;;21.00;41.20;;;;;;5141832;27;19933;-51
2022/04/25 04:39:34;;;;;;;;;;;21.20;41.00;;;;;;5147114;27;19923;-55
2022/04/25 04:42:01;;;;;;;;;;;21.10;40.90;;;;;;5138335;27;19931;-56
2022/04/25 04:44:27;;;;;;;;;;;21.30;40.60;;;;;;5139427;27;20146;-54
2022/04/25 04:46:53;;;;;;;;;;;21.20;40.50;;;;;;5128178;27;20021;-57
2022/04/25 04:49:18;;;;;;;;;;;21.20;40.50;;;;;;5141308;27;19927;-58
2022/04/25 04:51:44;;;;;;;;;;;21.20;40.30;;;;;;5146780;27;19970;-51
2022/04/25 04:54:10;;;;;;;;;;;21.20;40.40;;;;;;5141406;27;19973;-56
2022/04/25 04:56:36;;;;;;;;;;;21.10;40.20;;;;;;5141411;27;20271;-58
2022/04/25 04:59:02;;;;;;;;;;;21.20;40.20;;;;;;5146121;27;19923;-59
2022/04/25 05:01:28;;;;;;;;;;;21.20;40.10;;;;;;5136825;27;20339;-56
2022/04/25 05:03:58;;;;;;;;;;;21.20;40.20;;;;;;5140727;27;20195;-59
2022/04/25 05:06:24;;;;;;;;;;;21.30;40.10;;;;;;5146871;27;19923;-57
2022/04/25 05:08:50;;;;;;;;;;;21.10;40.30;;;;;;5141347;27;20382;-53
2022/04/25 05:11:16;;;;;;;;;;;21.20;40.20;;;;;;5145116;27;19968;-56
2022/04/25 05:13:42;;;;;;;;;;;21.20;40.50;;;;;;5143297;27;19923;-59
2022/04/25 05:16:07;;;;;;;;;;;21.20;40.20;;;;;;5141247;27;20011;-58
2022/04/25 05:18:33;;;;;;;;;;;21.10;40.50;;;;;;5143882;27;20406;-58
2022/04/25 05:20:59;;;;;;;;;;;21.30;40.10;;;;;;5138792;27;19923;-58
2022/04/25 05:23:25;;;;;;;;;;;21.10;40.70;;;;;;5140789;27;19927;-56
2022/04/25 05:25:51;;;;;;;;;;;21.30;40.30;;;;;;5128005;27;19975;-56
2022/04/25 05:28:21;;;;;;;;;;;21.00;40.80;;;;;;5141081;27;19930;-50
2022/04/25 05:30:47;;;;;;;;;;;21.20;40.50;;;;;;5122832;27;19927;-49
2022/04/25 05:33:13;;;;;;;;;;;21.10;40.60;;;;;;5128062;27;19930;-49
2022/04/25 05:35:38;;;;;;;;;;;21.20;40.60;;;;;;5141118;27;20335;-51
2022/04/25 05:38:06;;;;;;;;;;;21.10;40.80;;;;;;5142021;27;19976;-50
2022/04/25 05:40:32;;;;;;;;;;;21.20;40.70;;;;;;5140150;27;20374;-57
2022/04/25 05:42:58;;;;;;;;;;;21.10;40.80;;;;;;5140834;27;19971;-56
2022/04/25 05:45:24;;;;;;;;;;;21.20;41.00;;;;;;5146270;27;19938;-59
2022/04/25 05:47:54;;;;;;;;;;;21.30;40.50;;;;;;5140783;27;19923;-58
2022/04/25 05:53:04;;;;;;;;;;;21.30;40.30;;;;;;5146238;27;20180;-59
2022/04/25 05:55:30;;;;;;;;;;;21.10;40.90;;;;;;5137754;27;19923;-56
2022/04/25 05:57:56;;;;;;;;;;;21.20;40.40;;;;;;5138566;27;19982;-57
2022/04/25 06:00:22;;;;;;;;;;;21.10;40.90;;;;;;5145914;27;20349;-55
2022/04/25 06:02:48;;;;;;;;;;;21.20;40.50;;;;;;5140624;27;19930;-58
2022/04/25 06:05:15;;;;;;;;;;;21.00;40.90;;;;;;5146055;27;20447;-57
2022/04/25 06:07:43;;;;;;;;;;;21.30;40.50;;;;;;5140711;27;20382;-58
2022/04/25 06:10:10;;;;;;;;;;;21.00;41.20;;;;;;5141143;27;19934;-57
2022/04/25 06:12:42;;;;;;;;;;;21.30;40.60;;;;;;5149516;27;20058;-49
2022/04/25 06:15:08;;;;;;;;;;;21.10;40.90;;;;;;5139444;27;19971;-56
2022/04/25 06:17:34;;;;;;;;;;;21.20;40.50;;;;;;5123169;27;20018;-55
2022/04/25 06:20:00;;;;;;;;;;;21.00;40.80;;;;;;5149277;27;19927;-53
2022/04/25 06:22:26;;;;;;;;;;;21.20;40.50;;;;;;5143823;27;19962;-49
2022/04/25 06:24:52;;;;;;;;;;;21.10;40.80;;;;;;5146461;27;19927;-56
2022/04/25 06:27:17;;;;;;;;;;;21.20;40.50;;;;;;5147059;27;19923;-58
2022/04/25 06:29:46;;;;;;;;;;;21.20;40.50;;;;;;5125135;27;19990;-58
2022/04/25 06:32:12;;;;;;;;;;;21.10;40.70;;;;;;5146173;27;19931;-53
2022/04/25 06:34:38;;;;;;;;;;;21.20;40.50;;;;;;5141641;27;20357;-57
2022/04/25 06:37:05;;;;;;;;;;;21.20;40.60;;;;;;5143398;27;20394;-58
2022/04/25 06:39:31;;;;;;;;;;;21.20;40.40;;;;;;5130740;27;20013;-50
2022/04/25 06:41:57;;;;;;;;;;;21.20;40.80;;;;;;5143757;27;19927;-56
2022/04/25 06:44:22;;;;;;;;;;;21.10;40.80;;;;;;5125243;27;20336;-54
2022/04/25 06:46:48;;;;;;;;;;;21.30;40.70;;;;;;5148845;27;20012;-56
2022/04/25 06:49:20;;;;;;;;;;;21.10;41.20;;;;;;5143444;27;19923;-47
2022/04/25 06:51:49;;;;;;;;;;;21.20;41.10;;;;;;5144050;27;20297;-57
2022/04/25 06:54:15;;;;;;;;;;;21.10;41.20;;;;;;5142565;27;19923;-54
2022/04/25 06:56:41;;;;;;;;;;;21.20;41.00;;;;;;5143124;27;20401;-59
2022/04/25 06:59:07;;;;;;;;;;;21.00;41.20;;;;;;5148706;27;19975;-52
2022/04/25 07:01:32;;;;;;;;;;;21.20;40.80;;;;;;5143264;27;19934;-50
2022/04/25 07:03:58;;;;;;;;;;;21.10;41.00;;;;;;5143171;27;19975;-55
2022/04/25 07:06:24;;;;;;;;;;;21.30;40.60;;;;;;5148799;27;20208;-50
2022/04/25 07:08:50;;;;;;;;;;;21.00;41.10;;;;;;5120062;27;20022;-53
2022/04/25 07:11:16;;;;;;;;;;;21.30;40.50;;;;;;5125841;27;20362;-59
2022/04/25 07:13:42;;;;;;;;;;;21.30;40.20;;;;;;5144907;27;19934;-55
2022/04/25 07:16:08;;;;;;;;;;;21.20;40.00;;;;;;5143022;27;19929;-56
2022/04/25 07:18:35;;;;;;;;;;;21.20;39.60;;;;;;5148551;27;19951;-55
2022/04/25 07:28:48;;;;;;;;;;;21.20;39.30;;;;;;5142495;27;20613;-51
2022/04/25 07:29:15;;;;;;;;;;;21.20;40.10;;;;;;5143648;27;19927;-52
2022/04/25 07:31:41;;;;;;;;;;;21.10;40.30;;;;;;5142379;27;20409;-55
2022/04/25 07:34:07;;;;;;;;;;;21.30;40.30;;;;;;5148145;27;20362;-54
2022/04/25 07:36:33;;;;;;;;;;;21.10;40.50;;;;;;5142625;27;19931;-52
2022/04/25 07:38:59;;;;;;;;;;;21.20;40.30;;;;;;5142716;27;20358;-57
2022/04/25 07:41:27;;;;;;;;;;;21.30;39.80;;;;;;5148146;27;19966;-49
2022/04/25 07:43:53;;;;;;;;;;;21.10;39.90;;;;;;5142436;27;20311;-55
2022/04/25 07:46:23;;;;;;;;;;;21.20;40.00;;;;;;5138598;27;19938;-50
2022/04/25 07:48:49;;;;;;;;;;;21.00;40.50;;;;;;5146324;27;20047;-55
2022/04/25 07:51:15;;;;;;;;;;;21.30;40.10;;;;;;5142320;27;20064;-56
2022/04/25 07:53:41;;;;;;;;;;;21.00;40.30;;;;;;5147814;27;19923;-55
2022/04/25 07:56:07;;;;;;;;;;;21.30;39.90;;;;;;5142464;27;19923;-58
2022/04/25 07:58:34;;;;;;;;;;;21.30;39.80;;;;;;5142508;27;20275;-56
2022/04/25 08:01:00;;;;;;;;;;;21.10;40.20;;;;;;5147979;27;19923;-57
2022/04/25 08:03:26;;;;;;;;;;;21.30;39.60;;;;;;5140733;27;20118;-56
2022/04/25 08:05:52;;;;;;;;;;;21.10;39.70;;;;;;5138251;27;20022;-58
2022/04/25 08:08:18;;;;;;;;;;;21.30;39.30;;;;;;5147000;27;19923;-58
2022/04/25 08:10:43;;;;;;;;;;;21.10;39.70;;;;;;5142072;27;19971;-60
2022/04/25 08:18:38;;;;;;;;;;;21.20;39.30;;;;;;5142060;27;19923;-50
2022/04/25 08:21:04;;;;;;;;;;;21.00;39.50;;;;;;5152997;27;20341;-56
2022/04/25 08:23:30;;;;;;;;;;;21.30;39.00;;;;;;5163164;27;19922;-52
2022/04/25 08:25:56;;;;;;;;;;;21.10;39.10;;;;;;5161812;27;20038;-52
2022/04/25 08:28:23;;;;;;;;;;;21.20;39.00;;;;;;5167980;27;21277;-52
2022/04/25 08:30:52;;;;;;;;;;;21.20;39.00;;;;;;5142748;27;19983;-53
2022/04/25 08:33:19;;;;;;;;;;;21.20;39.20;;;;;;5161617;27;19929;-56
2022/04/25 08:35:45;;;;;;;;;;;21.20;39.30;;;;;;5168048;27;19966;-49
2022/04/25 08:38:11;;;;;;;;;;;21.20;39.40;;;;;;5162779;27;19927;-57
2022/04/25 08:40:36;;;;;;;;;;;21.30;39.30;;;;;;5159821;27;19956;-56
2022/04/25 08:43:04;;;;;;;;;;;21.10;39.70;;;;;;5165116;27;20009;-55
2022/04/25 08:45:30;;;;;;;;;;;21.20;39.40;;;;;;5162197;27;19923;-58
2022/04/25 08:47:57;;;;;;;;;;;21.20;39.30;;;;;;5167752;27;19927;-54
2022/04/25 08:50:23;;;;;;;;;;;21.20;39.30;;;;;;5144204;27;20519;-49
2022/04/25 08:52:49;;;;;;;;;;;21.10;39.40;;;;;;5162403;27;20037;-55
2022/04/25 08:55:15;;;;;;;;;;;21.20;39.10;;;;;;5167926;27;20022;-58
2022/04/25 08:57:41;;;;;;;;;;;21.20;39.20;;;;;;5150035;27;20378;-53
2022/04/25 09:00:07;;;;;;;;;;;21.20;39.40;;;;;;5136874;27;20148;-56
2022/04/25 09:02:34;;;;;;;;;;;21.30;39.10;;;;;;5145648;27;19962;-51
2022/04/25 09:05:01;;;;;;;;;;;21.10;39.60;;;;;;5141263;27;20347;-52
2022/04/25 09:07:27;;;;;;;;;;;21.20;39.50;;;;;;5143884;27;19930;-57
2022/04/25 09:09:54;;;;;;;;;;;21.30;39.40;;;;;;5144722;27;19929;-48
2022/04/25 09:12:19;;;;;;;;;;;21.00;39.90;;;;;;5141361;27;20025;-58
2022/04/25 09:14:45;;;;;;;;;;;21.20;39.60;;;;;;5146740;27;19937;-53
2022/04/25 09:17:11;;;;;;;;;;;21.10;39.70;;;;;;5138839;27;19923;-52
2022/04/25 09:19:37;;;;;;;;;;;21.10;39.90;;;;;;5138155;27;19934;-54
2022/04/25 09:22:04;;;;;;;;;;;21.10;39.90;;;;;;5146141;27;20022;-59
2022/04/25 09:24:30;;;;;;;;;;;21.20;39.70;;;;;;5140917;27;19954;-58
2022/04/25 09:27:17;;;;;;;;;;;21.30;39.20;;;;;;5141082;27;20327;-57
2022/04/25 09:29:42;;;;;;;;;;;21.20;39.30;;;;;;5146514;27;19923;-54
2022/04/25 09:32:09;;;;;;;;;;;21.20;39.50;;;;;;5140771;27;19927;-57
2022/04/25 09:37:20;;;;;;;;;;;21.10;39.90;;;;;;5137896;27;19929;-55
2022/04/25 09:39:46;;;;;;;;;;;21.30;39.60;;;;;;5121420;27;20014;-56
2022/04/25 09:42:12;;;;;;;;;;;21.20;39.70;;;;;;5145338;27;20022;-52
2022/04/25 09:44:53;;;;;;;;;;;21.20;39.50;;;;;;5143161;27;19931;-57
2022/04/25 09:47:31;;;;;;;;;;;21.20;39.50;;;;;;5144536;27;19926;-56
2022/04/25 09:50:03;;;;;;;;;;;21.10;39.70;;;;;;5148401;27;20374;-58
2022/04/25 09:52:29;;;;;;;;;;;21.30;40.10;;;;;;5148416;27;20362;-53
2022/04/25 09:54:57;;;;;;;;;;;21.20;40.20;;;;;;5140390;27;19983;-57
2022/04/25 09:57:30;;;;;;;;;;;21.30;39.80;;;;;;5148164;27;20029;-52
2022/04/25 09:59:56;;;;;;;;;;;21.20;40.00;;;;;;5144425;27;19923;-55
2022/04/25 10:02:22;;;;;;;;;;;21.20;40.30;;;;;;5144403;27;19927;-57
2022/04/25 10:04:47;;;;;;;;;;;21.20;40.00;;;;;;5149700;27;19930;-58
2022/04/25 10:07:13;;;;;;;;;;;21.30;40.00;;;;;;5144123;27;20294;-59
2022/04/25 10:09:39;;;;;;;;;;;21.30;40.10;;;;;;5144114;27;19927;-58
2022/04/25 10:12:05;;;;;;;;;;;21.20;40.40;;;;;;5148187;27;20076;-59
2022/04/25 10:14:31;;;;;;;;;;;21.20;40.10;;;;;;5140692;27;20301;-57
2022/04/25 10:16:57;;;;;;;;;;;21.20;40.30;;;;;;5148938;27;19923;-58
2022/04/25 10:19:24;;;;;;;;;;;21.30;39.70;;;;;;5125356;27;19930;-59
2022/04/25 10:21:53;;;;;;;;;;;21.20;40.10;;;;;;5144005;27;19923;-51
2022/04/25 10:24:19;;;;;;;;;;;21.20;39.90;;;;;;5149338;27;19956;-59
2022/04/25 10:26:46;;;;;;;;;;;21.30;39.30;;;;;;5143965;27;19927;-57
2022/04/25 10:29:13;;;;;;;;;;;21.30;39.40;;;;;;5143682;27;19923;-53
2022/04/25 10:31:41;;;;;;;;;;;21.10;39.70;;;;;;5126555;27;19958;-53
2022/04/25 10:34:07;;;;;;;;;;;21.10;39.90;;;;;;5142136;27;20022;-57
2022/04/25 10:36:36;;;;;;;;;;;21.20;39.70;;;;;;5125750;27;19929;-57
2022/04/25 10:39:21;;;;;;;;;;;21.30;39.50;;;;;;5149030;27;19933;-58
2022/04/25 10:44:37;;;;;;;;;;;21.20;39.90;;;;;;5143644;27;19923;-50
2022/04/25 10:47:03;;;;;;;;;;;21.10;39.90;;;;;;5149193;27;19924;-57
2022/04/25 10:49:35;;;;;;;;;;;21.30;39.30;;;;;;5140782;27;19958;-58
2022/04/25 10:52:03;;;;;;;;;;;21.10;39.70;;;;;;5140873;27;21303;-58
2022/04/25 10:54:48;;;;;;;;;;;21.20;39.40;;;;;;5148600;27;20021;-59
2022/04/25 10:57:14;;;;;;;;;;;21.20;39.60;;;;;;5142745;27;19923;-57
2022/04/25 10:59:40;;;;;;;;;;;21.20;40.00;;;;;;5146809;27;19930;-55
2022/04/25 11:02:21;;;;;;;;;;;21.30;39.70;;;;;;5145707;27;20309;-58
2022/04/25 11:04:47;;;;;;;;;;;21.20;39.60;;;;;;5143372;27;20014;-59
2022/04/25 11:07:20;;;;;;;;;;;21.30;39.60;;;;;;5147108;27;20028;-58
2022/04/25 11:09:46;;;;;;;;;;;21.30;39.50;;;;;;5140511;27;19927;-59
2022/04/25 11:12:11;;;;;;;;;;;21.30;39.60;;;;;;5124227;27;19927;-58
2022/04/25 11:14:37;;;;;;;;;;;21.20;39.20;;;;;;5129840;27;20447;-57
2022/04/25 11:17:07;;;;;;;;;;;21.30;39.20;;;;;;5142782;27;19931;-58
2022/04/25 11:19:45;;;;;;;;;;;21.30;39.00;;;;;;5143134;27;20372;-59
2022/04/25 11:22:29;;;;;;;;;;;21.20;39.20;;;;;;5148616;27;19963;-56
2022/04/25 11:24:55;;;;;;;;;;;21.20;39.40;;;;;;5142972;27;19927;-57
2022/04/25 11:27:21;;;;;;;;;;;21.30;39.50;;;;;;5119563;27;20275;-57
2022/04/25 11:30:06;;;;;;;;;;;21.30;39.20;;;;;;5147199;27;19923;-58
2022/04/25 11:32:35;;;;;;;;;;;21.30;39.10;;;;;;5142782;27;19927;-57
2022/04/25 11:35:01;;;;;;;;;;;21.30;38.70;;;;;;5142743;27;20632;-57
2022/04/25 11:37:27;;;;;;;;;;;21.30;38.70;;;;;;5148395;27;19947;-57
2022/04/25 11:39:54;;;;;;;;;;;21.20;38.50;;;;;;5142760;27;19930;-58
2022/04/25 11:42:20;;;;;;;;;;;21.20;38.50;;;;;;5143974;27;19923;-58
2022/04/25 11:44:45;;;;;;;;;;;21.20;38.70;;;;;;5143699;27;19927;-58
2022/04/25 11:47:11;;;;;;;;;;;21.30;38.90;;;;;;5140261;27;19937;-58
2022/04/25 11:49:38;;;;;;;;;;;21.30;38.40;;;;;;5147497;27;19934;-58
2022/04/25 11:52:04;;;;;;;;;;;21.40;38.30;;;;;;5142203;27;19936;-60
2022/04/25 11:54:31;;;;;;;;;;;21.30;38.50;;;;;;5142269;27;19949;-55
2022/04/25 11:56:59;;;;;;;;;;;21.40;38.60;;;;;;5147810;27;20355;-60
2022/04/25 11:59:24;;;;;;;;;;;21.40;38.70;;;;;;5142218;27;19927;-60
2022/04/25 12:01:50;;;;;;;;;;;21.40;39.20;;;;;;5142005;27;19934;-57
2022/04/25 12:04:34;;;;;;;;;;;21.50;39.50;;;;;;5142587;27;20010;-57
2022/04/25 12:07:01;;;;;;;;;;;21.30;40.60;;;;;;5141281;27;20000;-58
2022/04/25 12:17:42;;;;;;;;;;;21.30;43.00;;;;;;5142112;27;19922;-58
2022/04/25 12:20:09;;;;;;;;;;;21.30;43.10;;;;;;5147503;27;20037;-59
2022/04/25 12:22:36;;;;;;;;;;;21.30;43.20;;;;;;5137157;27;19962;-59
2022/04/25 12:25:15;;;;;;;;;;;21.30;43.60;;;;;;5141329;27;20375;-57
2022/04/25 12:27:59;;;;;;;;;;;21.20;44.00;;;;;;5147576;27;19923;-55
2022/04/25 12:30:24;;;;;;;;;;;21.10;44.50;;;;;;5142065;27;19930;-57
2022/04/25 12:33:03;;;;;;;;;;;21.30;44.30;;;;;;5142033;27;20398;-50
2022/04/25 12:35:29;;;;;;;;;;;21.20;44.50;;;;;;5129029;27;19967;-57
2022/04/25 12:37:55;;;;;;;;;;;21.30;44.00;;;;;;5141905;27;20370;-57
2022/04/25 12:40:21;;;;;;;;;;;21.30;44.10;;;;;;5139848;27;19934;-58
2022/04/25 12:42:47;;;;;;;;;;;21.30;44.50;;;;;;5143589;27;19931;-57
2022/04/25 12:45:14;;;;;;;;;;;21.20;44.90;;;;;;5141579;27;20456;-58
2022/04/25 12:47:53;;;;;;;;;;;21.30;44.70;;;;;;5146896;27;20049;-58
2022/04/25 12:50:38;;;;;;;;;;;21.30;44.40;;;;;;5141457;27;20395;-58
2022/04/25 12:53:06;;;;;;;;;;;21.30;44.30;;;;;;5141553;27;19931;-56
2022/04/25 12:55:45;;;;;;;;;;;21.30;44.00;;;;;;5146977;27;19929;-58
2022/04/25 12:58:11;;;;;;;;;;;21.30;43.80;;;;;;5139620;27;20282;-57
2022/04/25 13:00:54;;;;;;;;;;;21.30;43.60;;;;;;5138826;27;19930;-58
2022/04/25 13:03:20;;;;;;;;;;;21.30;43.40;;;;;;5128109;27;19923;-57
2022/04/25 13:05:46;;;;;;;;;;;21.30;43.40;;;;;;5141328;27;19923;-57
2022/04/25 13:08:12;;;;;;;;;;;21.30;42.70;;;;;;5141363;27;19923;-56
2022/04/25 13:10:38;;;;;;;;;;;21.20;42.70;;;;;;5125888;27;19992;-57
2022/04/25 13:13:04;;;;;;;;;;;21.10;42.80;;;;;;5141286;27;19945;-57
2022/04/25 13:15:30;;;;;;;;;;;21.30;42.30;;;;;;5140541;27;19950;-56
2022/04/25 13:17:55;;;;;;;;;;;21.30;42.10;;;;;;5142024;27;19934;-55
2022/04/25 13:20:22;;;;;;;;;;;21.30;42.70;;;;;;5142721;27;19944;-58
2022/04/25 13:22:48;;;;;;;;;;;21.20;43.20;;;;;;5150081;27;19923;-51
2022/04/25 13:25:15;;;;;;;;;;;21.20;42.90;;;;;;5145137;27;19934;-56
2022/04/25 13:27:40;;;;;;;;;;;21.20;42.90;;;;;;5145020;27;19956;-58
2022/04/25 13:30:07;;;;;;;;;;;21.30;43.00;;;;;;5150065;27;19938;-57
2022/04/25 13:32:33;;;;;;;;;;;21.10;43.30;;;;;;5144844;27;20383;-56
2022/04/25 13:34:59;;;;;;;;;;;21.20;43.50;;;;;;5141498;27;19930;-56
2022/04/25 13:37:25;;;;;;;;;;;21.20;43.80;;;;;;5147586;27;19923;-56
2022/04/25 13:39:52;;;;;;;;;;;21.20;43.70;;;;;;5144027;27;19973;-57
2022/04/25 13:42:18;;;;;;;;;;;21.30;43.80;;;;;;5146479;27;20018;-56
2022/04/25 13:44:44;;;;;;;;;;;21.20;44.00;;;;;;5148605;27;20372;-58
2022/04/25 13:47:10;;;;;;;;;;;21.20;44.30;;;;;;5144600;27;19945;-57
2022/04/25 13:49:37;;;;;;;;;;;21.20;44.20;;;;;;5149869;27;19923;-58
2022/04/25 13:52:03;;;;;;;;;;;21.30;44.30;;;;;;5144222;27;20393;-58
2022/04/25 13:54:28;;;;;;;;;;;21.30;44.60;;;;;;5139445;27;19994;-56
2022/04/25 13:56:55;;;;;;;;;;;21.30;44.80;;;;;;5148817;27;19927;-58
2022/04/25 13:59:21;;;;;;;;;;;21.20;44.80;;;;;;5144067;27;19923;-58
2022/04/25 14:01:47;;;;;;;;;;;21.20;45.10;;;;;;5144035;27;20446;-58
2022/04/25 14:04:13;;;;;;;;;;;21.30;44.60;;;;;;5149729;27;19923;-56
2022/04/25 14:06:38;;;;;;;;;;;21.30;45.10;;;;;;5144113;27;20297;-58
2022/04/25 14:09:04;;;;;;;;;;;21.30;44.70;;;;;;5149690;27;19927;-57
2022/04/25 14:11:31;;;;;;;;;;;21.20;44.90;;;;;;5141141;27;19923;-58
2022/04/25 14:13:58;;;;;;;;;;;21.20;44.90;;;;;;5141643;27;20067;-54
2022/04/25 14:16:24;;;;;;;;;;;21.20;45.10;;;;;;5129697;27;19927;-59
2022/04/25 14:18:50;;;;;;;;;;;21.30;44.60;;;;;;5143761;27;20298;-56
2022/04/25 14:21:16;;;;;;;;;;;21.20;45.10;;;;;;5143882;27;20151;-57
2022/04/25 14:23:41;;;;;;;;;;;21.30;45.00;;;;;;5149291;27;19927;-53
2022/04/25 14:26:09;;;;;;;;;;;21.10;45.70;;;;;;5143963;27;19933;-58
2022/04/25 14:28:35;;;;;;;;;;;21.20;45.50;;;;;;5149472;27;19923;-58
2022/04/25 14:31:01;;;;;;;;;;;21.20;45.70;;;;;;5137802;27;19923;-52
2022/04/25 14:33:26;;;;;;;;;;;21.10;45.90;;;;;;5142531;27;19998;-58
2022/04/25 14:35:53;;;;;;;;;;;21.30;45.70;;;;;;5148912;27;19972;-57
2022/04/25 14:38:22;;;;;;;;;;;21.20;46.00;;;;;;5143983;27;20404;-51
2022/04/25 14:40:49;;;;;;;;;;;21.20;46.20;;;;;;5144038;27;19927;-59
2022/04/25 14:43:15;;;;;;;;;;;21.20;46.00;;;;;;5149373;27;20386;-52
2022/04/25 14:45:41;;;;;;;;;;;21.10;46.00;;;;;;5143675;27;19923;-57
2022/04/25 14:48:07;;;;;;;;;;;21.20;45.50;;;;;;5142683;27;19938;-55
2022/04/25 14:56:02;;;;;;;;;;;21.20;44.40;;;;;;5143390;27;20216;-58